createdAt,value
2022-12-07T00:01:46.260Z,3.21
2022-12-07T00:04:17.712Z,3.16
2022-12-07T00:06:53.895Z,3.13
2022-12-07T00:09:20.862Z,3.11
2022-12-07T00:11:52.068Z,3.09
2022-12-07T00:14:20.289Z,3.07
2022-12-07T00:16:50.508Z,3.05
2022-12-07T00:19:17.824Z,3.03
2022-12-07T00:21:44.665Z,3.01
2022-12-07T00:24:13.687Z,3.00
2022-12-07T00:26:42.801Z,2.99
2022-12-07T00:29:22.594Z,2.95
2022-12-07T00:31:49.656Z,2.93
2022-12-07T00:34:21.072Z,2.93
2022-12-07T00:36:48.582Z,2.93
2022-12-07T00:39:15.728Z,2.92
2022-12-07T00:41:42.912Z,2.90
2022-12-07T00:44:09.699Z,2.88
2022-12-07T00:46:36.439Z,2.86
2022-12-07T00:49:03.562Z,2.85
2022-12-07T00:51:30.401Z,2.81
2022-12-07T00:53:57.149Z,2.81
2022-12-07T00:56:29.601Z,2.85
2022-12-07T00:59:04.764Z,2.85
2022-12-07T01:01:38.173Z,2.83
2022-12-07T01:04:06.135Z,2.82
2022-12-07T01:06:33.675Z,2.81
2022-12-07T01:09:01.460Z,2.79
2022-12-07T01:11:31.520Z,2.80
2022-12-07T01:14:01.358Z,2.80
2022-12-07T01:16:31.007Z,2.77
2022-12-07T01:18:59.852Z,2.74
2022-12-07T01:21:30.992Z,2.72
2022-12-07T01:23:59.516Z,2.70
2022-12-07T01:26:27.793Z,2.67
2022-12-07T01:28:56.450Z,2.66
2022-12-07T01:31:26.478Z,2.65
2022-12-07T01:33:57.403Z,2.66
2022-12-07T01:36:35.490Z,2.68
2022-12-07T01:39:06.923Z,2.67
2022-12-07T01:41:40.132Z,2.65
2022-12-07T01:44:24.156Z,2.65
2022-12-07T01:47:05.715Z,2.62
2022-12-07T01:49:36.711Z,2.62
2022-12-07T01:52:23.482Z,2.62
2022-12-07T01:54:58.162Z,2.59
2022-12-07T01:57:25.760Z,2.55
2022-12-07T01:59:55.098Z,2.52
2022-12-07T02:02:35.177Z,2.51
2022-12-07T02:05:04.936Z,2.47
2022-12-07T02:07:35.700Z,2.45
2022-12-07T02:10:17.551Z,2.45
2022-12-07T02:12:50.124Z,2.43
2022-12-07T02:15:18.095Z,2.41
2022-12-07T02:18:24.323Z,2.38
2022-12-07T02:21:14.516Z,2.38
2022-12-07T02:24:18.538Z,2.38
2022-12-07T02:27:24.615Z,2.36
2022-12-07T02:30:02.642Z,2.33
2022-12-07T02:33:08.863Z,2.27
2022-12-07T02:35:49.555Z,2.27
2022-12-07T02:38:32.269Z,2.31
2022-12-07T02:41:13.704Z,2.31
2022-12-07T02:43:48.683Z,2.31
2022-12-07T02:46:24.253Z,2.33
2022-12-07T02:48:53.667Z,2.31
2022-12-07T02:51:20.797Z,2.29
2022-12-07T02:53:47.656Z,2.27
2022-12-07T02:56:42.432Z,2.24
2022-12-07T02:59:38.268Z,2.16
2022-12-07T03:02:33.100Z,2.14
2022-12-07T03:05:22.573Z,2.20
2022-12-07T03:08:13.594Z,2.27
2022-12-07T03:10:52.291Z,2.34
2022-12-07T03:13:40.444Z,2.39
2022-12-07T03:16:14.035Z,2.42
2022-12-07T03:19:06.886Z,2.39
2022-12-07T03:21:41.961Z,2.37
2022-12-07T03:24:20.596Z,2.34
2022-12-07T03:26:57.115Z,2.34
2022-12-07T03:29:32.177Z,2.40
2022-12-07T03:32:09.571Z,2.41
2022-12-07T03:35:00.442Z,2.44
2022-12-07T03:37:41.081Z,2.48
2022-12-07T03:40:14.108Z,2.53
2022-12-07T03:42:41.405Z,2.59
2022-12-07T03:45:09.101Z,2.64
2022-12-07T03:47:45.281Z,2.66
2022-12-07T03:50:46.804Z,2.68
2022-12-07T03:53:23.371Z,2.68
2022-12-07T03:55:51.858Z,2.69
2022-12-07T03:58:22.860Z,2.72
2022-12-07T04:00:51.503Z,2.72
2022-12-07T04:03:18.410Z,2.72
2022-12-07T04:05:46.491Z,2.74
2022-12-07T04:08:13.306Z,2.77
2022-12-07T04:10:40.150Z,2.78
2022-12-07T04:13:06.886Z,2.78
2022-12-07T04:15:33.634Z,2.76
2022-12-07T04:18:00.762Z,2.78
2022-12-07T04:20:27.683Z,2.80
2022-12-07T04:22:54.472Z,2.83
2022-12-07T04:25:21.179Z,2.85
2022-12-07T04:27:47.910Z,2.86
2022-12-07T04:30:14.740Z,2.86
2022-12-07T04:32:41.561Z,2.82
2022-12-07T04:35:09.255Z,2.83
2022-12-07T04:37:36.149Z,2.88
2022-12-07T04:40:03.682Z,2.93
2022-12-07T04:42:30.517Z,2.98
2022-12-07T04:44:57.271Z,2.99
2022-12-07T04:47:23.985Z,2.98
2022-12-07T04:49:50.687Z,2.96
2022-12-07T04:52:17.448Z,2.92
2022-12-07T04:54:44.207Z,2.88
2022-12-07T04:57:10.960Z,2.83
2022-12-07T04:59:41.036Z,2.78
2022-12-07T05:02:10.677Z,2.77
2022-12-07T05:04:37.415Z,2.73
2022-12-07T05:07:04.113Z,2.68
2022-12-07T05:09:30.851Z,2.66
2022-12-07T05:11:57.579Z,2.65
2022-12-07T05:14:24.489Z,2.64
2022-12-07T05:16:52.357Z,2.65
2022-12-07T05:19:19.912Z,2.66
2022-12-07T05:21:47.547Z,2.64
2022-12-07T05:24:17.927Z,2.60
2022-12-07T05:26:45.781Z,2.58
2022-12-07T05:29:15.818Z,2.53
2022-12-07T05:31:43.674Z,2.49
2022-12-07T05:34:12.369Z,2.45
2022-12-07T05:36:39.067Z,2.45
2022-12-07T05:39:08.249Z,2.44
2022-12-07T05:41:53.562Z,2.45
2022-12-07T05:44:20.363Z,2.44
2022-12-07T05:46:47.093Z,2.45
2022-12-07T05:49:13.849Z,2.44
2022-12-07T05:51:40.595Z,2.45
2022-12-07T05:54:07.368Z,2.44
2022-12-07T05:56:34.230Z,2.40
2022-12-07T05:59:19.699Z,2.39
2022-12-07T06:01:46.675Z,2.38
2022-12-07T06:04:13.616Z,2.37
2022-12-07T06:06:40.400Z,2.33
2022-12-07T06:09:07.593Z,2.27
2022-12-07T06:11:52.729Z,2.26
2022-12-07T06:14:19.568Z,2.23
2022-12-07T06:16:46.936Z,2.25
2022-12-07T06:19:13.732Z,2.25
2022-12-07T06:21:40.930Z,2.22
2022-12-07T06:24:08.605Z,2.16
2022-12-07T06:26:35.393Z,2.15
2022-12-07T06:29:02.155Z,2.15
2022-12-07T06:31:29.116Z,2.20
2022-12-07T06:34:01.978Z,2.25
2022-12-07T06:36:29.046Z,2.30
2022-12-07T06:38:56.113Z,2.31
2022-12-07T06:41:23.950Z,2.31
2022-12-07T06:43:55.805Z,2.29
2022-12-07T06:46:23.924Z,2.36
2022-12-07T06:48:51.054Z,2.37
2022-12-07T06:51:17.882Z,2.37
2022-12-07T06:53:44.570Z,2.35
2022-12-07T06:56:11.683Z,2.33
2022-12-07T06:58:38.686Z,2.31
2022-12-07T07:01:15.558Z,2.30
2022-12-07T07:03:43.572Z,2.28
2022-12-07T07:06:10.864Z,2.24
2022-12-07T07:08:39.232Z,2.23
2022-12-07T07:11:07.441Z,2.24
2022-12-07T07:13:34.569Z,2.24
2022-12-07T07:16:01.825Z,2.24
2022-12-07T07:18:29.402Z,2.26
2022-12-07T07:20:56.799Z,2.25
2022-12-07T07:23:23.736Z,2.24
2022-12-07T07:25:50.485Z,2.26
2022-12-07T07:28:18.185Z,2.29
2022-12-07T07:30:45.559Z,2.33
2022-12-07T07:33:13.132Z,2.33
2022-12-07T07:35:40.401Z,2.33
2022-12-07T07:38:08.328Z,2.30
2022-12-07T07:40:36.089Z,2.27
2022-12-07T07:43:02.830Z,2.21
2022-12-07T07:45:29.555Z,2.20
2022-12-07T07:47:56.318Z,2.21
2022-12-07T07:50:23.679Z,2.24
2022-12-07T07:52:50.984Z,2.27
2022-12-07T07:55:18.738Z,2.34
2022-12-07T07:57:51.209Z,2.38
2022-12-07T08:00:21.627Z,2.39
2022-12-07T08:02:48.451Z,2.40
2022-12-07T08:05:17.228Z,2.42
2022-12-07T08:07:45.780Z,2.45
2022-12-07T08:10:14.608Z,2.46
2022-12-07T08:13:02.789Z,2.47
2022-12-07T08:15:32.109Z,2.47
2022-12-07T08:17:59.821Z,2.49
2022-12-07T08:20:27.276Z,2.52
2022-12-07T08:22:54.177Z,2.56
2022-12-07T08:25:23.027Z,2.61
2022-12-07T08:27:51.891Z,2.67
2022-12-07T08:30:19.855Z,2.69
2022-12-07T08:32:48.704Z,2.72
2022-12-07T08:35:16.852Z,2.75
2022-12-07T08:37:43.709Z,2.78
2022-12-07T08:40:17.096Z,2.80
2022-12-07T08:42:45.652Z,2.81
2022-12-07T08:45:15.218Z,2.80
2022-12-07T08:47:53.638Z,2.81
2022-12-07T08:50:21.467Z,2.85
2022-12-07T08:52:57.154Z,2.92
2022-12-07T08:55:24.789Z,2.97
2022-12-07T08:57:52.559Z,3.02
2022-12-07T09:00:19.760Z,3.04
2022-12-07T09:02:48.138Z,3.04
2022-12-07T09:05:18.257Z,3.05
2022-12-07T09:07:49.142Z,3.15
2022-12-07T09:10:16.025Z,3.28
2022-12-07T09:12:42.755Z,3.36
2022-12-07T09:15:10.080Z,3.44
2022-12-07T09:17:38.152Z,3.47
2022-12-07T09:20:07.081Z,3.47
2022-12-07T09:22:34.468Z,3.44
2022-12-07T09:25:02.649Z,3.43
2022-12-07T09:27:30.135Z,3.44
2022-12-07T09:29:57.038Z,3.47
2022-12-07T09:32:24.185Z,3.53
2022-12-07T09:34:51.226Z,3.59
2022-12-07T09:37:18.094Z,3.64
2022-12-07T09:39:50.032Z,3.69
2022-12-07T09:42:44.741Z,3.85
2022-12-07T09:45:28.180Z,3.96
2022-12-07T09:47:55.867Z,4.26
2022-12-07T09:50:27.924Z,4.53
2022-12-07T09:53:11.324Z,4.81
2022-12-07T09:55:42.015Z,5.12
2022-12-07T09:58:22.892Z,5.23
2022-12-07T10:00:56.615Z,5.21
2022-12-07T10:03:23.850Z,5.11
2022-12-07T10:05:53.736Z,5.12
2022-12-07T10:08:20.749Z,5.31
2022-12-07T10:10:56.614Z,5.55
2022-12-07T10:13:48.835Z,5.96
2022-12-07T10:16:42.750Z,6.39
2022-12-07T10:19:18.594Z,6.61
2022-12-07T10:22:16.227Z,6.53
2022-12-07T10:24:46.425Z,6.42
2022-12-07T10:27:27.682Z,6.35
2022-12-07T10:29:54.738Z,6.32
2022-12-07T10:32:21.408Z,6.29
2022-12-07T10:34:52.115Z,6.25
2022-12-07T10:37:21.480Z,6.24
2022-12-07T10:39:49.440Z,6.27
2022-12-07T10:42:24.422Z,6.34
2022-12-07T10:45:15.642Z,6.32
2022-12-07T10:48:17.697Z,6.25
2022-12-07T10:50:59.459Z,6.19
2022-12-07T10:54:11.958Z,6.09
2022-12-07T10:57:07.087Z,5.93
2022-12-07T11:00:00.592Z,5.89
2022-12-07T11:02:45.326Z,5.89
2022-12-07T11:05:46.288Z,5.93
2022-12-07T11:08:37.602Z,5.93
2022-12-07T11:11:15.498Z,5.94
2022-12-07T11:14:29.730Z,5.92
2022-12-07T11:17:07.469Z,5.89
2022-12-07T11:20:02.023Z,5.83
2022-12-07T11:22:49.264Z,5.79
2022-12-07T11:25:47.874Z,5.75
2022-12-07T11:28:33.166Z,5.69
2022-12-07T11:31:38.007Z,5.66
2022-12-07T11:34:19.817Z,5.62
2022-12-07T11:36:53.474Z,5.57
2022-12-07T11:39:20.618Z,5.50
2022-12-07T11:41:56.010Z,5.47
2022-12-07T11:44:53.130Z,5.48
2022-12-07T11:47:35.980Z,5.48
2022-12-07T11:50:26.134Z,5.47
2022-12-07T11:53:01.687Z,5.48
2022-12-07T11:55:58.923Z,5.50
2022-12-07T11:58:40.591Z,5.62
2022-12-07T12:01:40.188Z,5.78
2022-12-07T12:04:28.842Z,5.90
2022-12-07T12:06:56.490Z,6.05
2022-12-07T12:15:53.043Z,6.85
2022-12-07T12:18:49.069Z,7.17
2022-12-07T12:21:23.439Z,7.12
2022-12-07T12:24:09.905Z,7.02
2022-12-07T12:26:39.530Z,6.93
2022-12-07T12:29:24.394Z,6.81
2022-12-07T12:32:23.103Z,6.60
2022-12-07T12:35:01.390Z,6.31
2022-12-07T12:37:33.832Z,6.13
2022-12-07T12:40:15.799Z,5.95
2022-12-07T12:42:48.100Z,5.83
2022-12-07T12:45:33.706Z,5.75
2022-12-07T12:48:36.359Z,5.76
2022-12-07T12:51:43.649Z,5.94
2022-12-07T12:54:19.337Z,6.05
2022-12-07T12:56:59.854Z,6.24
2022-12-07T12:59:31.863Z,6.32
2022-12-07T13:02:48.723Z,6.37
2022-12-07T13:05:15.407Z,6.35
2022-12-07T13:07:48.083Z,6.29
2022-12-07T13:10:35.796Z,6.18
2022-12-07T13:13:15.052Z,5.95
2022-12-07T13:16:08.114Z,5.74
2022-12-07T13:18:34.995Z,5.60
2022-12-07T13:21:07.725Z,5.51
2022-12-07T13:23:45.953Z,5.44
2022-12-07T13:26:23.832Z,5.44
2022-12-07T13:29:10.758Z,5.44
2022-12-07T13:31:51.472Z,5.67
2022-12-07T13:34:35.719Z,5.70
2022-12-07T13:37:16.029Z,5.86
2022-12-07T13:39:53.191Z,6.19
2022-12-07T13:42:33.019Z,6.53
2022-12-07T13:45:21.854Z,6.77
2022-12-07T13:47:58.406Z,6.82
2022-12-07T13:50:32.512Z,6.71
2022-12-07T13:53:01.889Z,6.52
2022-12-07T13:55:30.581Z,6.36
2022-12-07T13:57:57.853Z,6.26
2022-12-07T14:00:29.447Z,6.19
2022-12-07T14:03:04.295Z,6.11
2022-12-07T14:05:37.486Z,6.04
2022-12-07T14:08:22.518Z,5.99
2022-12-07T14:10:52.382Z,5.95
2022-12-07T14:14:05.773Z,5.94
2022-12-07T14:16:39.814Z,5.89
2022-12-07T14:19:48.273Z,5.85
2022-12-07T14:22:38.454Z,5.78
2022-12-07T14:25:05.394Z,5.74
2022-12-07T14:27:35.152Z,5.71
2022-12-07T14:30:04.652Z,5.49
2022-12-07T14:32:33.537Z,4.95
2022-12-07T14:35:14.198Z,4.65
2022-12-07T14:37:43.654Z,4.39
2022-12-07T14:40:23.188Z,4.12
2022-12-07T14:43:01.106Z,3.92
2022-12-07T14:45:27.928Z,3.73
2022-12-07T14:53:55.367Z,3.44
2022-12-07T14:56:25.826Z,3.45
2022-12-07T14:58:52.780Z,3.35
2022-12-07T15:01:19.599Z,3.30
2022-12-07T15:03:46.572Z,3.24
2022-12-07T15:06:19.149Z,3.20
2022-12-07T15:08:48.955Z,3.21
2022-12-07T15:11:18.390Z,3.26
2022-12-07T15:14:03.537Z,3.31
2022-12-07T15:16:40.722Z,3.31
2022-12-07T15:19:29.452Z,3.30
2022-12-07T15:21:58.216Z,3.30
2022-12-07T15:24:25.307Z,3.29
2022-12-07T15:26:53.189Z,3.30
2022-12-07T15:29:23.311Z,3.33
2022-12-07T15:31:57.792Z,3.37
2022-12-07T15:34:30.916Z,3.39
2022-12-07T15:37:00.154Z,3.36
2022-12-07T15:39:27.028Z,3.27
2022-12-07T15:41:53.731Z,3.22
2022-12-07T15:44:39.056Z,3.19
2022-12-07T15:47:06.850Z,3.18
2022-12-07T15:49:33.924Z,3.17
2022-12-07T15:52:00.704Z,3.17
2022-12-07T15:54:30.266Z,3.14
2022-12-07T15:56:57.349Z,3.11
2022-12-07T15:59:24.982Z,3.12
2022-12-07T16:01:52.018Z,3.17
2022-12-07T16:04:19.613Z,3.22
2022-12-07T16:06:46.440Z,3.25
2022-12-07T16:09:13.456Z,3.26
2022-12-07T16:11:40.222Z,3.29
2022-12-07T16:14:06.981Z,3.32
2022-12-07T16:16:34.003Z,3.32
2022-12-07T16:19:00.903Z,3.34
2022-12-07T16:21:27.656Z,3.36
2022-12-07T16:23:54.480Z,3.39
2022-12-07T16:26:22.979Z,3.42
2022-12-07T16:28:51.500Z,3.45
2022-12-07T16:31:22.281Z,3.49
2022-12-07T16:33:50.494Z,3.52
2022-12-07T16:36:40.042Z,3.55
2022-12-07T16:39:06.858Z,3.58
2022-12-07T16:41:33.930Z,3.60
2022-12-07T16:44:07.515Z,3.61
2022-12-07T16:46:36.935Z,3.62
2022-12-07T16:49:05.272Z,3.63
2022-12-07T16:51:32.807Z,3.67
2022-12-07T16:53:59.798Z,3.70
2022-12-07T16:56:27.684Z,3.72
2022-12-07T16:58:55.687Z,3.73
2022-12-07T17:01:23.944Z,3.76
2022-12-07T17:03:51.483Z,3.79
2022-12-07T17:06:24.582Z,3.80
2022-12-07T17:08:52.752Z,3.82
2022-12-07T17:11:29.745Z,3.83
2022-12-07T17:14:20.496Z,3.86
2022-12-07T17:16:47.835Z,3.89
2022-12-07T17:19:17.715Z,3.88
2022-12-07T17:21:45.234Z,3.90
2022-12-07T17:24:16.275Z,3.89
2022-12-07T17:26:45.639Z,3.90
2022-12-07T17:29:15.553Z,3.92
2022-12-07T17:31:46.365Z,3.92
2022-12-07T17:34:17.759Z,3.91
2022-12-07T17:36:46.098Z,3.91
2022-12-07T17:39:18.340Z,3.90
2022-12-07T17:42:04.366Z,3.88
2022-12-07T17:44:31.897Z,3.86
2022-12-07T17:46:59.662Z,3.85
2022-12-07T17:49:27.760Z,3.82
2022-12-07T17:52:14.240Z,3.81
2022-12-07T17:54:41.142Z,3.78
2022-12-07T17:57:08.522Z,3.75
2022-12-07T17:59:35.322Z,3.73
2022-12-07T18:02:02.088Z,3.74
2022-12-07T18:04:28.935Z,3.73
2022-12-07T18:06:55.791Z,3.73
2022-12-07T18:09:23.456Z,3.70
2022-12-07T18:11:50.392Z,3.70
2022-12-07T18:14:17.338Z,3.69
2022-12-07T18:16:44.517Z,3.69
2022-12-07T18:19:14.497Z,3.69
2022-12-07T18:21:42.124Z,3.68
2022-12-07T18:24:13.219Z,3.68
2022-12-07T18:26:40.608Z,3.68
2022-12-07T18:29:08.855Z,3.67
2022-12-07T18:31:37.092Z,3.66
2022-12-07T18:34:11.884Z,3.68
2022-12-07T18:36:42.724Z,3.66
2022-12-07T18:39:10.432Z,3.67
2022-12-07T18:41:39.320Z,3.66
2022-12-07T18:44:07.852Z,3.65
2022-12-07T18:46:36.232Z,3.66
2022-12-07T18:49:04.493Z,3.67
2022-12-07T18:51:32.598Z,3.69
2022-12-07T18:54:01.365Z,3.68
2022-12-07T18:56:29.469Z,3.71
2022-12-07T18:59:20.473Z,3.71
2022-12-07T19:01:51.742Z,3.69
2022-12-07T19:04:19.094Z,3.69
2022-12-07T19:06:48.914Z,3.69
2022-12-07T19:09:17.368Z,3.70
2022-12-07T19:11:50.415Z,3.70
2022-12-07T19:14:29.049Z,3.69
2022-12-07T19:17:03.243Z,3.70
2022-12-07T19:19:34.948Z,3.69
2022-12-07T19:22:03.116Z,3.71
2022-12-07T19:24:30.475Z,3.72
2022-12-07T19:26:58.269Z,3.69
2022-12-07T19:29:27.950Z,3.71
2022-12-07T19:31:54.788Z,3.73
2022-12-07T19:34:21.672Z,3.74
2022-12-07T19:36:48.694Z,3.75
2022-12-07T19:39:16.194Z,3.75
2022-12-07T19:41:44.810Z,3.75
2022-12-07T19:44:17.997Z,3.74
2022-12-07T19:46:48.771Z,3.72
2022-12-07T19:49:16.472Z,3.72
2022-12-07T19:51:52.861Z,3.74
2022-12-07T19:54:23.455Z,3.73
2022-12-07T19:56:51.881Z,3.74
2022-12-07T19:59:23.273Z,3.74
2022-12-07T20:01:50.478Z,3.74
2022-12-07T20:04:22.273Z,3.76
2022-12-07T20:06:53.481Z,3.75
2022-12-07T20:09:21.559Z,3.74
2022-12-07T20:12:07.377Z,3.74
2022-12-07T20:14:35.318Z,3.73
2022-12-07T20:17:03.446Z,3.71
2022-12-07T20:19:30.301Z,3.71
2022-12-07T20:21:57.228Z,3.70
2022-12-07T20:24:26.432Z,3.72
2022-12-07T20:26:54.884Z,3.70
2022-12-07T20:29:25.394Z,3.69
2022-12-07T20:31:54.934Z,3.66
2022-12-07T20:34:22.465Z,3.64
2022-12-07T20:36:49.341Z,3.63
2022-12-07T20:39:16.892Z,3.63
2022-12-07T20:42:02.061Z,3.62
2022-12-07T20:44:28.742Z,3.61
2022-12-07T20:46:55.537Z,3.59
2022-12-07T20:49:22.470Z,3.57
2022-12-07T20:51:49.389Z,3.56
2022-12-07T20:54:16.169Z,3.53
2022-12-07T20:56:43.435Z,3.52
2022-12-07T20:59:15.321Z,3.50
2022-12-07T21:01:43.894Z,3.49
2022-12-07T21:04:12.689Z,3.49
2022-12-07T21:06:40.133Z,3.48
2022-12-07T21:09:07.493Z,3.45
2022-12-07T21:11:34.319Z,3.43
2022-12-07T21:14:01.612Z,3.43
2022-12-07T21:16:31.310Z,3.44
2022-12-07T21:19:03.579Z,3.43
2022-12-07T21:21:32.775Z,3.43
2022-12-07T21:24:02.762Z,3.41
2022-12-07T21:26:36.176Z,3.39
2022-12-07T21:29:07.328Z,3.38
2022-12-07T21:31:35.107Z,3.38
2022-12-07T21:34:03.967Z,3.39
2022-12-07T21:36:31.478Z,3.36
2022-12-07T21:38:58.950Z,3.37
2022-12-07T21:41:32.400Z,3.34
2022-12-07T21:44:01.608Z,3.32
2022-12-07T21:46:34.314Z,3.30
2022-12-07T21:49:08.688Z,3.27
2022-12-07T21:51:35.529Z,3.25
2022-12-07T21:54:04.558Z,3.25
2022-12-07T21:56:35.960Z,3.24
2022-12-07T21:59:10.727Z,3.24
2022-12-07T22:01:40.670Z,3.24
2022-12-07T22:04:14.241Z,3.25
2022-12-07T22:06:41.008Z,3.24
2022-12-07T22:09:07.830Z,3.24
2022-12-07T22:11:35.871Z,3.24
2022-12-07T22:14:23.124Z,3.23
2022-12-07T22:16:51.449Z,3.20
2022-12-07T22:19:18.949Z,3.19
2022-12-07T22:21:45.993Z,3.19
2022-12-07T22:24:13.927Z,3.22
2022-12-07T22:26:42.711Z,3.21
2022-12-07T22:29:10.560Z,3.22
2022-12-07T22:31:38.351Z,3.19
2022-12-07T22:34:05.239Z,3.20
2022-12-07T22:36:32.265Z,3.18
2022-12-07T22:39:01.544Z,3.19
2022-12-07T22:41:31.981Z,3.16
2022-12-07T22:44:00.785Z,3.19
2022-12-07T22:46:28.442Z,3.20
2022-12-07T22:48:55.283Z,3.22
2022-12-07T22:51:27.962Z,3.22
2022-12-07T22:53:56.964Z,3.23
2022-12-07T22:56:23.837Z,3.24
2022-12-07T22:58:50.671Z,3.23
2022-12-07T23:01:20.276Z,3.22
2022-12-07T23:03:47.327Z,3.23
2022-12-07T23:06:34.467Z,3.21
2022-12-07T23:09:08.064Z,3.21
2022-12-07T23:11:58.809Z,3.21
2022-12-07T23:14:30.326Z,3.20
2022-12-07T23:16:57.751Z,3.21
2022-12-07T23:19:24.944Z,3.19
2022-12-07T23:21:51.837Z,3.19
2022-12-07T23:24:18.707Z,3.19
2022-12-07T23:26:46.872Z,3.17
2022-12-07T23:29:17.767Z,3.14
2022-12-07T23:31:47.722Z,3.13
2022-12-07T23:34:14.627Z,3.08
2022-12-07T23:36:41.338Z,3.06
2022-12-07T23:39:09.419Z,3.03
2022-12-07T23:41:36.215Z,3.01
2022-12-07T23:44:03.263Z,2.99
2022-12-07T23:46:33.336Z,2.96
2022-12-07T23:49:03.444Z,2.99
2022-12-07T23:51:30.956Z,2.98
2022-12-07T23:54:00.928Z,2.96
2022-12-07T23:56:31.179Z,2.95
2022-12-07T23:58:59.989Z,2.96
